Terminal Aerodrome Forecast
Issued by NWS Jackson, MS

Home | Current Version | Previous Version | Text Only | Print | Product List | Glossary On
Versions: 1 2 3 4 5 6 7 8 9 10 11
637
FTUS44 KMEG 260522
TAFTUP
TAF
KTUP 260522Z 2606/2706 18007KT P6SM SKC
     FM261200 18010KT P6SM BKN020
     FM261700 19015G22KT P6SM SCT035
     FM270300 18018G28KT 3SM TSRA BR SCT015 OVC030CB
      TEMPO 2704/2706 27020G30KT 1 1/2SM TSRA OVC015CB=

USA.gov is the U.S. government's official web portal to all federal, state and local government web resources and services.